createdAt,value
2018-07-15T00:00:51.480Z,12.50
2018-07-15T00:03:55.733Z,12.50
2018-07-15T00:06:59.961Z,12.50
2018-07-15T00:10:04.661Z,12.50
2018-07-15T00:13:08.904Z,12.50
2018-07-15T00:16:13.121Z,12.40
2018-07-15T00:19:17.372Z,12.40
2018-07-15T00:22:21.629Z,12.40
2018-07-15T00:25:25.877Z,12.40
2018-07-15T00:28:30.088Z,12.40
2018-07-15T00:31:34.344Z,12.40
2018-07-15T00:34:38.560Z,12.40
2018-07-15T00:37:42.795Z,12.20
2018-07-15T00:40:47.068Z,12.10
2018-07-15T00:43:51.284Z,12.00
2018-07-15T00:46:55.821Z,11.90
2018-07-15T00:50:00.056Z,11.90
2018-07-15T00:53:04.269Z,11.90
2018-07-15T00:56:08.552Z,11.90
2018-07-15T00:59:12.760Z,11.90
2018-07-15T01:02:17.984Z,11.90
2018-07-15T01:08:26.202Z,11.80
2018-07-15T01:11:30.472Z,11.80
2018-07-15T01:14:34.719Z,11.70
2018-07-15T01:17:38.983Z,11.70
2018-07-15T01:20:43.288Z,11.60
2018-07-15T01:26:51.593Z,11.60
2018-07-15T01:29:55.792Z,11.60
2018-07-15T01:33:00.028Z,11.70
2018-07-15T01:36:04.244Z,11.60
2018-07-15T01:39:08.484Z,11.60
2018-07-15T01:42:12.704Z,11.60
2018-07-15T01:45:16.948Z,11.50
2018-07-15T01:48:21.181Z,11.50
2018-07-15T01:51:26.303Z,11.40
2018-07-15T01:54:30.519Z,11.30
2018-07-15T01:57:34.798Z,11.30
2018-07-15T02:00:39.010Z,11.30
2018-07-15T02:03:43.233Z,11.20
2018-07-15T02:06:47.456Z,11.20
2018-07-15T02:09:51.696Z,11.20
2018-07-15T02:12:55.945Z,11.20
2018-07-15T02:16:00.171Z,11.10
2018-07-15T02:19:04.397Z,11.10
2018-07-15T02:22:08.598Z,11.10
2018-07-15T02:25:12.864Z,11.00
2018-07-15T02:28:17.134Z,11.00
2018-07-15T02:31:21.349Z,11.00
2018-07-15T02:34:27.799Z,11.00
2018-07-15T02:37:32.013Z,11.00
2018-07-15T02:40:36.241Z,11.10
2018-07-15T02:43:40.453Z,11.10
2018-07-15T02:46:44.679Z,11.10
2018-07-15T02:49:48.899Z,11.10
2018-07-15T02:52:53.217Z,11.00
2018-07-15T02:55:57.435Z,11.00
2018-07-15T02:59:01.679Z,11.00
2018-07-15T03:02:05.890Z,10.90
2018-07-15T03:05:10.136Z,10.90
2018-07-15T03:08:14.357Z,10.80
2018-07-15T03:11:18.561Z,10.90
2018-07-15T03:14:22.776Z,10.90
2018-07-15T03:17:27.112Z,10.80
2018-07-15T03:20:31.267Z,10.80
2018-07-15T03:23:35.496Z,10.80
2018-07-15T03:26:39.722Z,10.80
2018-07-15T03:29:43.934Z,10.80
2018-07-15T03:32:48.173Z,10.80
2018-07-15T03:35:52.400Z,10.80
2018-07-15T03:38:56.618Z,10.80
2018-07-15T03:42:00.834Z,10.90
2018-07-15T03:45:05.193Z,10.90
2018-07-15T03:48:09.409Z,10.80
2018-07-15T03:51:13.627Z,10.90
2018-07-15T03:54:18.278Z,11.00
2018-07-15T03:57:22.513Z,11.00
2018-07-15T04:00:26.740Z,11.10
2018-07-15T04:03:30.996Z,11.10
2018-07-15T04:06:35.180Z,11.10
2018-07-15T04:09:39.408Z,11.10
2018-07-15T04:12:43.605Z,11.00
2018-07-15T04:15:47.816Z,11.00
2018-07-15T04:18:52.037Z,11.00
2018-07-15T04:21:56.258Z,11.00
2018-07-15T04:25:00.477Z,11.00
2018-07-15T04:28:05.324Z,11.10
2018-07-15T04:31:09.545Z,11.10
2018-07-15T04:34:13.792Z,11.10
2018-07-15T04:37:18.009Z,11.10
2018-07-15T04:40:22.383Z,11.10
2018-07-15T04:43:26.661Z,11.20
2018-07-15T04:46:30.842Z,11.20
2018-07-15T04:49:35.073Z,11.30
2018-07-15T04:52:39.342Z,11.40
2018-07-15T04:55:43.584Z,11.50
2018-07-15T04:58:47.885Z,11.60
2018-07-15T05:01:52.137Z,11.70
2018-07-15T05:04:56.346Z,11.80
2018-07-15T05:08:00.589Z,12.00
2018-07-15T05:11:04.806Z,12.10
2018-07-15T05:14:09.244Z,12.20
2018-07-15T05:17:13.478Z,12.30
2018-07-15T05:20:17.695Z,12.50
2018-07-15T05:23:21.919Z,12.60
2018-07-15T05:26:26.218Z,12.80
2018-07-15T05:29:30.470Z,12.90
2018-07-15T05:32:35.034Z,13.00
2018-07-15T05:35:39.257Z,13.20
2018-07-15T05:38:43.484Z,13.30
2018-07-15T05:41:47.685Z,13.50
2018-07-15T05:44:51.922Z,13.60
2018-07-15T05:47:56.177Z,13.80
2018-07-15T05:51:00.402Z,14.00
2018-07-15T05:54:04.648Z,14.10
2018-07-15T05:57:08.865Z,14.30
2018-07-15T06:00:13.096Z,14.50
2018-07-15T06:03:17.310Z,14.70
2018-07-15T06:06:21.570Z,15.00
2018-07-15T06:09:25.802Z,15.20
2018-07-15T06:12:30.062Z,15.40
2018-07-15T06:15:34.289Z,15.50
2018-07-15T06:18:38.513Z,15.70
2018-07-15T06:21:42.751Z,15.90
2018-07-15T06:24:46.982Z,16.10
2018-07-15T06:27:51.220Z,16.30
2018-07-15T06:30:55.477Z,16.50
2018-07-15T06:33:59.709Z,16.70
2018-07-15T06:37:04.017Z,16.70
2018-07-15T06:40:08.449Z,16.90
2018-07-15T06:43:12.693Z,17.00
2018-07-15T06:46:16.940Z,17.20
2018-07-15T06:49:21.174Z,17.30
2018-07-15T06:52:25.385Z,17.40
2018-07-15T06:55:29.599Z,17.50
2018-07-15T06:58:33.825Z,17.60
2018-07-15T07:01:38.100Z,17.70
2018-07-15T07:04:42.681Z,17.80
2018-07-15T07:07:47.900Z,17.90
2018-07-15T07:10:52.073Z,18.10
2018-07-15T07:13:56.281Z,18.20
2018-07-15T07:17:00.497Z,18.40
2018-07-15T07:20:04.688Z,18.50
2018-07-15T07:23:08.918Z,18.60
2018-07-15T07:26:13.124Z,18.70
2018-07-15T07:29:17.359Z,18.90
2018-07-15T07:32:21.564Z,19.00
2018-07-15T07:35:25.760Z,19.20
2018-07-15T07:38:29.946Z,19.30
2018-07-15T07:41:34.165Z,19.40
2018-07-15T07:44:38.361Z,19.50
2018-07-15T07:47:42.589Z,19.60
2018-07-15T07:50:46.813Z,19.70
2018-07-15T07:53:51.049Z,19.80
2018-07-15T07:56:55.251Z,19.90
2018-07-15T07:59:59.484Z,20.00
2018-07-15T08:03:03.685Z,20.10
2018-07-15T08:06:07.930Z,20.20
2018-07-15T08:09:12.119Z,20.30
2018-07-15T08:12:16.316Z,20.30
2018-07-15T08:15:20.566Z,20.40
2018-07-15T08:18:24.716Z,20.50
2018-07-15T08:21:28.936Z,20.70
2018-07-15T08:24:33.187Z,20.80
2018-07-15T08:27:37.385Z,20.90
2018-07-15T08:30:58.537Z,20.90
2018-07-15T08:34:02.757Z,21.00
2018-07-15T08:37:07.042Z,21.10
2018-07-15T08:40:11.277Z,21.20
2018-07-15T08:43:15.497Z,21.20
2018-07-15T08:46:19.692Z,21.30
2018-07-15T08:49:23.901Z,21.40
2018-07-15T08:52:28.109Z,21.50
2018-07-15T08:55:32.324Z,21.70
2018-07-15T08:58:36.557Z,21.90
2018-07-15T09:01:40.765Z,21.90
2018-07-15T09:04:44.971Z,22.00
2018-07-15T09:07:49.185Z,22.10
2018-07-15T09:10:53.389Z,22.30
2018-07-15T09:13:57.612Z,22.30
2018-07-15T09:20:05.926Z,22.50
2018-07-15T09:23:10.167Z,22.60
2018-07-15T09:26:14.347Z,22.60
2018-07-15T09:29:18.565Z,22.60
2018-07-15T09:32:22.799Z,22.70
2018-07-15T09:35:27.085Z,22.90
2018-07-15T09:38:31.734Z,23.10
2018-07-15T09:41:35.989Z,23.00
2018-07-15T09:44:40.216Z,23.00
2018-07-15T09:47:44.421Z,23.00
2018-07-15T09:50:48.603Z,23.00
2018-07-15T09:53:52.812Z,23.00
2018-07-15T09:56:57.042Z,23.10
2018-07-15T10:00:01.402Z,23.10
2018-07-15T10:03:05.622Z,23.10
2018-07-15T10:06:09.824Z,23.00
2018-07-15T10:09:14.786Z,23.00
2018-07-15T10:12:18.981Z,22.90
2018-07-15T10:15:23.201Z,22.90
2018-07-15T10:18:27.429Z,23.00
2018-07-15T10:21:31.665Z,22.90
2018-07-15T10:24:35.919Z,22.80
2018-07-15T10:27:40.140Z,23.00
2018-07-15T10:30:44.369Z,23.20
2018-07-15T10:33:48.586Z,23.30
2018-07-15T10:36:52.822Z,23.30
2018-07-15T10:39:57.140Z,23.20
2018-07-15T10:43:01.357Z,23.10
2018-07-15T10:46:05.617Z,23.10
2018-07-15T10:49:09.796Z,23.10
2018-07-15T10:52:14.025Z,23.10
2018-07-15T10:55:18.228Z,23.40
2018-07-15T10:58:22.448Z,23.60
2018-07-15T11:01:26.636Z,23.50
2018-07-15T11:04:30.857Z,23.40
2018-07-15T11:07:35.052Z,23.30
2018-07-15T11:10:39.265Z,23.30
2018-07-15T11:13:43.460Z,23.50
2018-07-15T11:16:47.673Z,23.60
2018-07-15T11:19:51.876Z,23.70
2018-07-15T11:22:56.093Z,23.70
2018-07-15T11:26:00.310Z,23.60
2018-07-15T11:29:04.549Z,23.60
2018-07-15T11:32:08.777Z,23.60
2018-07-15T11:35:13.031Z,23.60
2018-07-15T11:38:17.812Z,23.50
2018-07-15T11:41:22.049Z,23.50
2018-07-15T11:44:26.246Z,23.60
2018-07-15T11:47:30.458Z,23.90
2018-07-15T11:50:34.693Z,24.00
2018-07-15T11:53:38.893Z,24.20
2018-07-15T11:56:43.123Z,24.30
2018-07-15T11:59:47.361Z,24.40
2018-07-15T12:02:51.564Z,24.30
2018-07-15T12:05:55.749Z,24.20
2018-07-15T12:08:59.994Z,24.20
2018-07-15T12:12:04.190Z,24.10
2018-07-15T12:15:08.401Z,24.00
2018-07-15T12:18:12.616Z,23.90
2018-07-15T12:21:16.888Z,23.90
2018-07-15T12:24:21.097Z,23.80
2018-07-15T12:27:25.318Z,23.70
2018-07-15T12:30:29.525Z,23.60
2018-07-15T12:33:33.730Z,23.80
2018-07-15T12:36:37.940Z,23.90
2018-07-15T12:39:42.141Z,24.10
2018-07-15T12:42:46.345Z,24.30
2018-07-15T12:45:50.553Z,24.40
2018-07-15T12:48:54.925Z,24.50
2018-07-15T12:51:59.165Z,24.50
2018-07-15T12:55:03.364Z,24.30
2018-07-15T12:58:07.625Z,24.10
2018-07-15T13:01:11.879Z,24.00
2018-07-15T13:04:16.062Z,24.10
2018-07-15T13:07:20.292Z,24.30
2018-07-15T13:13:28.475Z,24.30
2018-07-15T13:16:32.737Z,24.20
2018-07-15T13:19:37.116Z,24.00
2018-07-15T13:22:41.320Z,24.00
2018-07-15T13:25:45.524Z,24.10
2018-07-15T13:28:49.974Z,24.20
2018-07-15T13:31:54.173Z,24.30
2018-07-15T13:34:58.425Z,24.50
2018-07-15T13:38:02.653Z,24.70
2018-07-15T13:41:06.913Z,24.90
2018-07-15T13:44:11.126Z,25.10
2018-07-15T13:47:15.354Z,25.30
2018-07-15T13:50:19.581Z,25.40
2018-07-15T13:53:24.032Z,25.50
2018-07-15T13:56:28.276Z,25.50
2018-07-15T13:59:32.480Z,25.50
2018-07-15T14:02:37.073Z,25.40
2018-07-15T14:05:41.296Z,25.20
2018-07-15T14:08:45.489Z,25.10
2018-07-15T14:11:49.709Z,25.10
2018-07-15T14:14:53.925Z,25.30
2018-07-15T14:17:58.140Z,25.40
2018-07-15T14:21:02.523Z,25.60
2018-07-15T14:24:06.781Z,25.70
2018-07-15T14:27:11.042Z,25.80
2018-07-15T14:30:15.249Z,25.80
2018-07-15T14:33:19.472Z,25.80
2018-07-15T14:36:23.689Z,25.90
2018-07-15T14:39:36.229Z,26.10
2018-07-15T14:42:40.460Z,26.30
2018-07-15T14:45:46.784Z,26.50
2018-07-15T14:48:51.014Z,26.50
2018-07-15T14:51:55.217Z,26.50
2018-07-15T14:54:59.438Z,26.70
2018-07-15T14:58:03.757Z,26.70
2018-07-15T15:01:08.093Z,26.90
2018-07-15T15:04:12.280Z,27.20
2018-07-15T15:07:16.492Z,27.30
2018-07-15T15:10:20.705Z,27.50
2018-07-15T15:13:24.966Z,27.50
2018-07-15T15:16:29.160Z,27.60
2018-07-15T15:19:33.349Z,27.50
2018-07-15T15:22:37.621Z,27.60
2018-07-15T15:25:41.914Z,27.80
2018-07-15T15:28:46.108Z,28.00
2018-07-15T15:31:50.322Z,28.10
2018-07-15T15:34:54.569Z,28.20
2018-07-15T15:37:58.801Z,28.40
2018-07-15T15:41:03.037Z,28.60
2018-07-15T15:44:07.922Z,28.80
2018-07-15T15:47:12.317Z,28.80
2018-07-15T15:53:20.492Z,29.00
2018-07-15T15:56:24.684Z,28.80
2018-07-15T15:59:28.943Z,28.80
2018-07-15T16:02:33.181Z,28.90
2018-07-15T16:05:37.469Z,28.80
2018-07-15T16:08:41.715Z,28.60
2018-07-15T16:11:45.937Z,28.30
2018-07-15T16:14:50.178Z,28.10
2018-07-15T16:17:54.396Z,27.70
2018-07-15T16:20:58.597Z,27.50
2018-07-15T16:24:02.947Z,27.40
2018-07-15T16:27:07.181Z,27.10
2018-07-15T16:30:11.406Z,26.90
2018-07-15T16:33:15.650Z,26.20
2018-07-15T16:36:19.854Z,25.80
2018-07-15T16:39:24.052Z,25.30
2018-07-15T16:42:28.250Z,25.00
2018-07-15T16:45:32.511Z,24.90
2018-07-15T16:48:36.685Z,24.70
2018-07-15T16:51:41.037Z,24.50
2018-07-15T16:54:45.321Z,24.30
2018-07-15T16:57:49.537Z,24.20
2018-07-15T17:00:53.761Z,24.10
2018-07-15T17:03:58.004Z,24.00
2018-07-15T17:07:02.250Z,23.90
2018-07-15T17:10:07.266Z,23.80
2018-07-15T17:13:11.521Z,23.70
2018-07-15T17:16:15.724Z,23.70
2018-07-15T17:19:19.940Z,23.60
2018-07-15T17:22:24.135Z,23.50
2018-07-15T17:25:28.367Z,23.40
2018-07-15T17:28:32.569Z,23.40
2018-07-15T17:31:36.802Z,23.30
2018-07-15T17:34:40.987Z,23.30
2018-07-15T17:37:45.200Z,23.30
2018-07-15T17:40:49.421Z,23.10
2018-07-15T17:43:53.669Z,23.10
2018-07-15T17:46:57.868Z,23.00
2018-07-15T17:50:02.607Z,23.00
2018-07-15T17:53:06.822Z,23.00
2018-07-15T17:56:11.058Z,23.00
2018-07-15T17:59:15.232Z,22.90
2018-07-15T18:02:19.468Z,22.90
2018-07-15T18:05:23.669Z,22.80
2018-07-15T18:08:27.905Z,22.70
2018-07-15T18:11:32.093Z,22.60
2018-07-15T18:14:36.297Z,22.60
2018-07-15T18:17:40.521Z,22.50
2018-07-15T18:20:44.822Z,22.50
2018-07-15T18:23:48.960Z,22.40
2018-07-15T18:26:53.221Z,22.30
2018-07-15T18:29:57.442Z,22.30
2018-07-15T18:33:01.621Z,22.20
2018-07-15T18:36:05.852Z,22.20
2018-07-15T18:39:10.151Z,22.10
2018-07-15T18:42:14.309Z,21.90
2018-07-15T18:45:18.536Z,21.80
2018-07-15T18:48:22.792Z,21.80
2018-07-15T18:51:27.049Z,21.70
2018-07-15T18:54:31.280Z,21.60
2018-07-15T18:57:35.489Z,21.60
2018-07-15T19:00:39.700Z,21.50
2018-07-15T19:03:43.957Z,21.40
2018-07-15T19:06:48.177Z,21.30
2018-07-15T19:09:52.400Z,21.20
2018-07-15T19:12:56.626Z,21.10
2018-07-15T19:16:00.808Z,21.00
2018-07-15T19:19:05.117Z,20.90
2018-07-15T19:22:09.325Z,20.80
2018-07-15T19:25:13.536Z,20.70
2018-07-15T19:28:17.766Z,20.50
2018-07-15T19:31:21.991Z,20.50
2018-07-15T19:34:26.213Z,20.40
2018-07-15T19:37:30.424Z,20.30
2018-07-15T19:40:34.821Z,20.10
2018-07-15T19:43:39.084Z,20.10
2018-07-15T19:46:43.313Z,20.00
2018-07-15T19:49:47.508Z,19.90
2018-07-15T19:52:51.724Z,19.80
2018-07-15T19:55:55.945Z,19.60
2018-07-15T19:59:00.173Z,19.60
2018-07-15T20:02:04.396Z,19.40
2018-07-15T20:05:08.604Z,19.40
2018-07-15T20:08:12.830Z,19.30
2018-07-15T20:11:17.061Z,19.20
2018-07-15T20:14:21.537Z,19.10
2018-07-15T20:17:25.768Z,19.10
2018-07-15T20:20:29.998Z,18.90
2018-07-15T20:23:34.212Z,18.80
2018-07-15T20:26:38.437Z,18.80
2018-07-15T20:29:42.689Z,18.70
2018-07-15T20:32:46.934Z,18.60
2018-07-15T20:35:51.157Z,18.50
2018-07-15T20:38:55.545Z,18.40
2018-07-15T20:41:59.757Z,18.40
2018-07-15T20:45:04.254Z,18.30
2018-07-15T20:48:08.476Z,18.20
2018-07-15T20:51:12.703Z,18.20
2018-07-15T20:54:16.940Z,18.10
2018-07-15T20:57:21.148Z,18.00
2018-07-15T21:00:25.349Z,18.00
2018-07-15T21:03:29.552Z,17.90
2018-07-15T21:06:35.209Z,17.80
2018-07-15T21:09:39.416Z,17.80
2018-07-15T21:12:43.651Z,17.70
2018-07-15T21:15:47.869Z,17.60
2018-07-15T21:18:52.104Z,17.50
2018-07-15T21:21:56.320Z,17.50
2018-07-15T21:25:00.524Z,17.40
2018-07-15T21:28:04.868Z,17.30
2018-07-15T21:31:09.071Z,17.30
2018-07-15T21:34:13.281Z,17.20
2018-07-15T21:37:17.506Z,17.20
2018-07-15T21:40:21.726Z,17.10
2018-07-15T21:43:25.932Z,17.10
2018-07-15T21:46:30.199Z,17.00
2018-07-15T21:49:34.441Z,17.00
2018-07-15T21:52:38.680Z,16.90
2018-07-15T21:55:42.913Z,16.90
2018-07-15T21:58:47.109Z,16.90
2018-07-15T22:01:51.313Z,16.80
2018-07-15T22:04:57.697Z,16.70
2018-07-15T22:08:19.045Z,16.70
2018-07-15T22:11:23.261Z,16.60
2018-07-15T22:14:27.525Z,16.60
2018-07-15T22:17:31.750Z,16.60
2018-07-15T22:20:36.322Z,16.60
2018-07-15T22:23:40.544Z,16.50
2018-07-15T22:26:44.784Z,16.50
2018-07-15T22:32:52.978Z,16.40
2018-07-15T22:35:57.197Z,16.30
2018-07-15T22:39:01.429Z,16.30
2018-07-15T22:42:05.633Z,16.30
2018-07-15T22:45:09.848Z,16.20
2018-07-15T22:48:14.076Z,16.20
2018-07-15T22:51:18.293Z,16.10
2018-07-15T22:54:22.513Z,16.10
2018-07-15T22:57:26.730Z,16.00
2018-07-15T23:00:31.008Z,16.00
2018-07-15T23:03:35.206Z,15.90
2018-07-15T23:06:39.651Z,16.00
2018-07-15T23:09:43.874Z,15.90
2018-07-15T23:12:48.121Z,15.80
2018-07-15T23:15:52.522Z,15.80
2018-07-15T23:18:56.749Z,15.80
2018-07-15T23:22:01.781Z,15.70
2018-07-15T23:25:06.029Z,15.70
2018-07-15T23:28:11.121Z,15.70
2018-07-15T23:31:15.397Z,15.60
2018-07-15T23:34:19.622Z,15.60
2018-07-15T23:37:23.842Z,15.50
2018-07-15T23:40:28.069Z,15.50
2018-07-15T23:43:32.287Z,15.50
2018-07-15T23:46:36.524Z,15.40
2018-07-15T23:49:40.748Z,15.40
2018-07-15T23:52:44.984Z,15.30
2018-07-15T23:55:49.200Z,15.30
2018-07-15T23:58:53.416Z,15.30
